Salt Pond, Missouri
Current Conditions -  °F | °C
As of 10:58 AM on Friday 24 Oct 2014 (Local Time) from KSZL Reporting Station
Scattered Clouds Scattered Clouds  
Wind Chill: 65°   Ceiling: Unl
Heat Index: 65°   Visibility: 10mi
Dew Point: 56°   Wind: 9mph
Humidity: 74%   Direction: 190°S
Pressure: 30.08"   Gusts: NA
Location:  38.9707°N, 93.4332°W
Report Text: KSZL 241558Z 19008KT 10SM SCT100 18/14 A3008 RMK AO2A SLP186 T01810135 $
Loading
Personal Weather Stations






























Interactive Weather Map
Tropical Storm Tracking
New forecast layout! Learn more

10-Day Weather Forecast

Advertisements
Track Severe Weather on mobile